sensor_id;sensor_type;location;lat;lon;timestamp;P1;durP1;ratioP1;P2;durP2;ratioP2
51438;SDS011;38816;51.142;-0.974;2024-03-29T00:00:54;122.63;;;114.03;;
51438;SDS011;38816;51.142;-0.974;2024-03-29T00:03:23;120.25;;;112.22;;
51438;SDS011;38816;51.142;-0.974;2024-03-29T00:05:49;107.07;;;99.88;;
51438;SDS011;38816;51.142;-0.974;2024-03-29T00:08:14;112.07;;;104.15;;
51438;SDS011;38816;51.142;-0.974;2024-03-29T00:10:40;146.52;;;136.27;;
51438;SDS011;38816;51.142;-0.974;2024-03-29T00:13:05;120.20;;;111.65;;
51438;SDS011;38816;51.142;-0.974;2024-03-29T00:15:31;124.40;;;115.15;;
51438;SDS011;38816;51.142;-0.974;2024-03-29T00:17:57;123.70;;;115.10;;
51438;SDS011;38816;51.142;-0.974;2024-03-29T00:20:23;123.45;;;114.85;;
51438;SDS011;38816;51.142;-0.974;2024-03-29T00:22:49;114.55;;;105.90;;
51438;SDS011;38816;51.142;-0.974;2024-03-29T00:25:14;121.90;;;112.97;;
51438;SDS011;38816;51.142;-0.974;2024-03-29T00:27:40;110.28;;;102.70;;
51438;SDS011;38816;51.142;-0.974;2024-03-29T00:30:05;107.05;;;99.13;;
51438;SDS011;38816;51.142;-0.974;2024-03-29T00:32:31;114.47;;;105.88;;
51438;SDS011;38816;51.142;-0.974;2024-03-29T00:34:56;126.60;;;117.40;;
51438;SDS011;38816;51.142;-0.974;2024-03-29T00:37:23;132.02;;;122.38;;
51438;SDS011;38816;51.142;-0.974;2024-03-29T00:39:49;140.73;;;130.70;;
51438;SDS011;38816;51.142;-0.974;2024-03-29T00:42:15;134.80;;;125.40;;
51438;SDS011;38816;51.142;-0.974;2024-03-29T00:44:42;118.53;;;109.80;;
51438;SDS011;38816;51.142;-0.974;2024-03-29T00:47:08;112.60;;;104.53;;
51438;SDS011;38816;51.142;-0.974;2024-03-29T00:49:34;114.82;;;106.20;;
51438;SDS011;38816;51.142;-0.974;2024-03-29T00:52:01;119.95;;;111.25;;
51438;SDS011;38816;51.142;-0.974;2024-03-29T00:54:27;113.20;;;104.97;;
51438;SDS011;38816;51.142;-0.974;2024-03-29T00:56:52;112.68;;;104.07;;
51438;SDS011;38816;51.142;-0.974;2024-03-29T00:59:18;104.65;;;97.28;;
51438;SDS011;38816;51.142;-0.974;2024-03-29T01:01:45;108.03;;;100.28;;
51438;SDS011;38816;51.142;-0.974;2024-03-29T01:04:11;112.10;;;102.45;;
51438;SDS011;38816;51.142;-0.974;2024-03-29T01:06:37;108.97;;;99.95;;
51438;SDS011;38816;51.142;-0.974;2024-03-29T01:09:03;110.63;;;102.28;;
51438;SDS011;38816;51.142;-0.974;2024-03-29T01:11:29;111.00;;;101.88;;
51438;SDS011;38816;51.142;-0.974;2024-03-29T01:13:55;107.78;;;98.95;;
51438;SDS011;38816;51.142;-0.974;2024-03-29T01:16:20;106.18;;;97.13;;
51438;SDS011;38816;51.142;-0.974;2024-03-29T01:18:46;111.40;;;102.82;;
51438;SDS011;38816;51.142;-0.974;2024-03-29T01:21:14;113.95;;;105.22;;
51438;SDS011;38816;51.142;-0.974;2024-03-29T01:23:39;112.57;;;104.13;;
51438;SDS011;38816;51.142;-0.974;2024-03-29T01:26:05;113.07;;;104.25;;
51438;SDS011;38816;51.142;-0.974;2024-03-29T01:28:31;117.40;;;106.78;;
51438;SDS011;38816;51.142;-0.974;2024-03-29T01:30:57;113.55;;;105.22;;
51438;SDS011;38816;51.142;-0.974;2024-03-29T01:33:25;121.88;;;112.28;;
51438;SDS011;38816;51.142;-0.974;2024-03-29T01:35:51;120.43;;;110.55;;
51438;SDS011;38816;51.142;-0.974;2024-03-29T01:38:16;113.93;;;105.35;;
51438;SDS011;38816;51.142;-0.974;2024-03-29T01:40:42;111.88;;;102.55;;
51438;SDS011;38816;51.142;-0.974;2024-03-29T01:43:08;118.03;;;108.97;;
51438;SDS011;38816;51.142;-0.974;2024-03-29T01:45:39;110.50;;;102.10;;
51438;SDS011;38816;51.142;-0.974;2024-03-29T01:48:05;113.00;;;104.40;;
51438;SDS011;38816;51.142;-0.974;2024-03-29T01:50:32;110.25;;;101.00;;
51438;SDS011;38816;51.142;-0.974;2024-03-29T01:52:59;117.57;;;108.82;;
51438;SDS011;38816;51.142;-0.974;2024-03-29T01:55:25;135.75;;;125.68;;
51438;SDS011;38816;51.142;-0.974;2024-03-29T01:57:50;106.65;;;97.57;;
51438;SDS011;38816;51.142;-0.974;2024-03-29T02:00:17;112.25;;;103.35;;
51438;SDS011;38816;51.142;-0.974;2024-03-29T02:02:43;103.72;;;95.60;;
51438;SDS011;38816;51.142;-0.974;2024-03-29T02:05:09;97.07;;;89.22;;
51438;SDS011;38816;51.142;-0.974;2024-03-29T02:07:35;105.60;;;97.78;;
51438;SDS011;38816;51.142;-0.974;2024-03-29T02:10:02;106.72;;;98.40;;
51438;SDS011;38816;51.142;-0.974;2024-03-29T02:12:28;110.28;;;100.65;;
51438;SDS011;38816;51.142;-0.974;2024-03-29T02:14:54;113.38;;;104.28;;
51438;SDS011;38816;51.142;-0.974;2024-03-29T02:17:20;116.53;;;106.53;;
51438;SDS011;38816;51.142;-0.974;2024-03-29T02:19:46;108.43;;;100.38;;
51438;SDS011;38816;51.142;-0.974;2024-03-29T02:22:12;115.25;;;106.20;;
51438;SDS011;38816;51.142;-0.974;2024-03-29T02:24:40;112.13;;;103.50;;
51438;SDS011;38816;51.142;-0.974;2024-03-29T02:27:06;113.13;;;104.10;;
51438;SDS011;38816;51.142;-0.974;2024-03-29T02:29:31;107.13;;;98.75;;
51438;SDS011;38816;51.142;-0.974;2024-03-29T02:31:56;107.95;;;99.03;;
51438;SDS011;38816;51.142;-0.974;2024-03-29T02:34:22;103.10;;;94.47;;
51438;SDS011;38816;51.142;-0.974;2024-03-29T02:36:48;107.93;;;99.68;;
51438;SDS011;38816;51.142;-0.974;2024-03-29T02:39:13;100.43;;;92.10;;
51438;SDS011;38816;51.142;-0.974;2024-03-29T02:41:39;108.72;;;99.72;;
51438;SDS011;38816;51.142;-0.974;2024-03-29T02:44:04;104.50;;;96.20;;
51438;SDS011;38816;51.142;-0.974;2024-03-29T02:46:30;108.53;;;99.68;;
51438;SDS011;38816;51.142;-0.974;2024-03-29T02:48:55;105.70;;;97.35;;
51438;SDS011;38816;51.142;-0.974;2024-03-29T02:51:21;104.53;;;96.70;;
51438;SDS011;38816;51.142;-0.974;2024-03-29T02:53:46;111.47;;;102.00;;
51438;SDS011;38816;51.142;-0.974;2024-03-29T02:56:12;103.85;;;95.90;;
51438;SDS011;38816;51.142;-0.974;2024-03-29T02:58:39;101.93;;;93.63;;
51438;SDS011;38816;51.142;-0.974;2024-03-29T03:01:05;96.88;;;89.03;;
51438;SDS011;38816;51.142;-0.974;2024-03-29T03:03:34;103.88;;;94.90;;
51438;SDS011;38816;51.142;-0.974;2024-03-29T03:06:00;106.35;;;98.57;;
51438;SDS011;38816;51.142;-0.974;2024-03-29T03:08:26;104.18;;;96.25;;
51438;SDS011;38816;51.142;-0.974;2024-03-29T03:11:10;112.35;;;103.55;;
51438;SDS011;38816;51.142;-0.974;2024-03-29T03:13:35;109.82;;;101.65;;
51438;SDS011;38816;51.142;-0.974;2024-03-29T03:16:01;113.43;;;105.55;;
51438;SDS011;38816;51.142;-0.974;2024-03-29T03:18:26;102.32;;;94.63;;
51438;SDS011;38816;51.142;-0.974;2024-03-29T03:20:55;101.22;;;93.72;;
51438;SDS011;38816;51.142;-0.974;2024-03-29T03:23:24;107.70;;;99.10;;
51438;SDS011;38816;51.142;-0.974;2024-03-29T03:25:53;109.90;;;100.85;;
51438;SDS011;38816;51.142;-0.974;2024-03-29T03:28:20;106.45;;;98.70;;
51438;SDS011;38816;51.142;-0.974;2024-03-29T03:30:45;107.03;;;99.22;;
51438;SDS011;38816;51.142;-0.974;2024-03-29T03:33:11;104.18;;;96.43;;
51438;SDS011;38816;51.142;-0.974;2024-03-29T03:35:36;108.05;;;100.03;;
51438;SDS011;38816;51.142;-0.974;2024-03-29T03:38:02;108.95;;;101.40;;
51438;SDS011;38816;51.142;-0.974;2024-03-29T03:40:27;106.07;;;97.65;;
51438;SDS011;38816;51.142;-0.974;2024-03-29T03:42:53;96.10;;;88.57;;
51438;SDS011;38816;51.142;-0.974;2024-03-29T03:45:18;103.65;;;95.07;;
51438;SDS011;38816;51.142;-0.974;2024-03-29T03:47:47;108.13;;;99.80;;
51438;SDS011;38816;51.142;-0.974;2024-03-29T03:50:13;100.00;;;92.32;;
51438;SDS011;38816;51.142;-0.974;2024-03-29T03:52:38;100.05;;;92.85;;
51438;SDS011;38816;51.142;-0.974;2024-03-29T03:55:04;103.93;;;95.15;;
51438;SDS011;38816;51.142;-0.974;2024-03-29T03:57:30;103.25;;;95.50;;
51438;SDS011;38816;51.142;-0.974;2024-03-29T03:59:55;103.28;;;95.00;;
51438;SDS011;38816;51.142;-0.974;2024-03-29T04:02:21;111.97;;;103.22;;
51438;SDS011;38816;51.142;-0.974;2024-03-29T04:04:47;108.05;;;99.95;;
51438;SDS011;38816;51.142;-0.974;2024-03-29T04:07:13;101.03;;;93.50;;
51438;SDS011;38816;51.142;-0.974;2024-03-29T04:09:38;109.57;;;100.93;;
51438;SDS011;38816;51.142;-0.974;2024-03-29T04:12:04;111.53;;;103.15;;
51438;SDS011;38816;51.142;-0.974;2024-03-29T04:14:29;107.35;;;98.43;;
51438;SDS011;38816;51.142;-0.974;2024-03-29T04:16:55;102.40;;;93.95;;
51438;SDS011;38816;51.142;-0.974;2024-03-29T04:19:20;105.00;;;96.72;;
51438;SDS011;38816;51.142;-0.974;2024-03-29T04:21:46;106.63;;;97.55;;
51438;SDS011;38816;51.142;-0.974;2024-03-29T04:24:11;103.93;;;94.07;;
51438;SDS011;38816;51.142;-0.974;2024-03-29T04:26:37;106.90;;;98.25;;
51438;SDS011;38816;51.142;-0.974;2024-03-29T04:29:03;105.43;;;96.03;;
51438;SDS011;38816;51.142;-0.974;2024-03-29T04:31:29;106.60;;;97.28;;
51438;SDS011;38816;51.142;-0.974;2024-03-29T04:33:54;109.70;;;100.70;;
51438;SDS011;38816;51.142;-0.974;2024-03-29T04:36:20;125.68;;;115.20;;
51438;SDS011;38816;51.142;-0.974;2024-03-29T04:38:45;108.00;;;98.47;;
51438;SDS011;38816;51.142;-0.974;2024-03-29T04:41:12;103.22;;;93.50;;
51438;SDS011;38816;51.142;-0.974;2024-03-29T04:43:38;98.05;;;89.35;;
51438;SDS011;38816;51.142;-0.974;2024-03-29T04:46:08;110.13;;;99.30;;
51438;SDS011;38816;51.142;-0.974;2024-03-29T04:48:39;106.45;;;96.60;;
51438;SDS011;38816;51.142;-0.974;2024-03-29T04:51:06;103.65;;;94.50;;
51438;SDS011;38816;51.142;-0.974;2024-03-29T04:53:32;100.82;;;91.50;;
51438;SDS011;38816;51.142;-0.974;2024-03-29T04:55:57;106.93;;;96.75;;
51438;SDS011;38816;51.142;-0.974;2024-03-29T04:58:24;102.00;;;91.85;;
51438;SDS011;38816;51.142;-0.974;2024-03-29T05:00:53;107.22;;;97.78;;
51438;SDS011;38816;51.142;-0.974;2024-03-29T05:03:20;99.43;;;89.05;;
51438;SDS011;38816;51.142;-0.974;2024-03-29T05:05:46;119.35;;;107.53;;
51438;SDS011;38816;51.142;-0.974;2024-03-29T05:08:12;99.68;;;90.20;;
51438;SDS011;38816;51.142;-0.974;2024-03-29T05:10:41;109.80;;;99.13;;
51438;SDS011;38816;51.142;-0.974;2024-03-29T05:13:07;112.60;;;102.13;;
51438;SDS011;38816;51.142;-0.974;2024-03-29T05:15:32;101.82;;;92.97;;
51438;SDS011;38816;51.142;-0.974;2024-03-29T05:17:58;100.50;;;90.65;;
51438;SDS011;38816;51.142;-0.974;2024-03-29T05:20:24;106.15;;;96.18;;
51438;SDS011;38816;51.142;-0.974;2024-03-29T05:22:49;98.32;;;89.85;;
51438;SDS011;38816;51.142;-0.974;2024-03-29T05:25:15;97.20;;;88.30;;
51438;SDS011;38816;51.142;-0.974;2024-03-29T05:27:40;91.60;;;82.85;;
51438;SDS011;38816;51.142;-0.974;2024-03-29T05:30:09;91.22;;;82.70;;
51438;SDS011;38816;51.142;-0.974;2024-03-29T05:32:38;97.00;;;88.65;;
51438;SDS011;38816;51.142;-0.974;2024-03-29T05:35:04;94.95;;;86.53;;
51438;SDS011;38816;51.142;-0.974;2024-03-29T05:37:30;91.88;;;83.57;;
51438;SDS011;38816;51.142;-0.974;2024-03-29T05:39:55;93.70;;;86.00;;
51438;SDS011;38816;51.142;-0.974;2024-03-29T05:42:30;97.20;;;88.18;;
51438;SDS011;38816;51.142;-0.974;2024-03-29T05:44:58;93.43;;;84.40;;
51438;SDS011;38816;51.142;-0.974;2024-03-29T05:47:23;93.68;;;85.22;;
51438;SDS011;38816;51.142;-0.974;2024-03-29T05:49:49;98.05;;;88.82;;
51438;SDS011;38816;51.142;-0.974;2024-03-29T05:52:15;99.03;;;87.82;;
51438;SDS011;38816;51.142;-0.974;2024-03-29T05:54:42;104.45;;;95.07;;
51438;SDS011;38816;51.142;-0.974;2024-03-29T05:57:08;98.93;;;89.88;;
51438;SDS011;38816;51.142;-0.974;2024-03-29T05:59:37;96.10;;;87.07;;
51438;SDS011;38816;51.142;-0.974;2024-03-29T06:02:03;104.75;;;95.85;;
51438;SDS011;38816;51.142;-0.974;2024-03-29T06:04:29;91.03;;;83.25;;
51438;SDS011;38816;51.142;-0.974;2024-03-29T06:07:01;92.07;;;84.25;;
51438;SDS011;38816;51.142;-0.974;2024-03-29T06:09:30;99.73;;;90.63;;
51438;SDS011;38816;51.142;-0.974;2024-03-29T06:11:56;96.07;;;87.57;;
51438;SDS011;38816;51.142;-0.974;2024-03-29T06:14:25;108.15;;;97.45;;
51438;SDS011;38816;51.142;-0.974;2024-03-29T06:17:09;101.63;;;92.90;;
51438;SDS011;38816;51.142;-0.974;2024-03-29T06:20:04;110.70;;;100.95;;
51438;SDS011;38816;51.142;-0.974;2024-03-29T06:22:30;92.75;;;84.50;;
51438;SDS011;38816;51.142;-0.974;2024-03-29T06:24:56;105.32;;;95.90;;
51438;SDS011;38816;51.142;-0.974;2024-03-29T06:27:30;93.65;;;84.90;;
51438;SDS011;38816;51.142;-0.974;2024-03-29T06:29:59;95.20;;;87.50;;
51438;SDS011;38816;51.142;-0.974;2024-03-29T06:32:25;90.55;;;82.50;;
51438;SDS011;38816;51.142;-0.974;2024-03-29T06:34:50;80.47;;;73.25;;
51438;SDS011;38816;51.142;-0.974;2024-03-29T06:37:16;92.47;;;85.07;;
51438;SDS011;38816;51.142;-0.974;2024-03-29T06:39:42;82.90;;;75.30;;
51438;SDS011;38816;51.142;-0.974;2024-03-29T06:42:08;87.15;;;79.30;;
51438;SDS011;38816;51.142;-0.974;2024-03-29T06:44:35;74.40;;;67.18;;
51438;SDS011;38816;51.142;-0.974;2024-03-29T06:47:01;73.85;;;66.68;;
51438;SDS011;38816;51.142;-0.974;2024-03-29T06:49:27;85.93;;;78.35;;
51438;SDS011;38816;51.142;-0.974;2024-03-29T06:51:53;80.55;;;72.97;;
51438;SDS011;38816;51.142;-0.974;2024-03-29T06:54:22;75.47;;;68.45;;
51438;SDS011;38816;51.142;-0.974;2024-03-29T06:56:51;74.95;;;68.10;;
51438;SDS011;38816;51.142;-0.974;2024-03-29T06:59:18;77.38;;;70.80;;
51438;SDS011;38816;51.142;-0.974;2024-03-29T07:01:44;84.03;;;75.40;;
51438;SDS011;38816;51.142;-0.974;2024-03-29T07:04:09;74.85;;;67.57;;
51438;SDS011;38816;51.142;-0.974;2024-03-29T07:06:35;68.15;;;61.85;;
51438;SDS011;38816;51.142;-0.974;2024-03-29T07:09:03;63.22;;;56.55;;
51438;SDS011;38816;51.142;-0.974;2024-03-29T07:11:29;66.97;;;60.58;;
51438;SDS011;38816;51.142;-0.974;2024-03-29T07:13:54;62.00;;;56.58;;
51438;SDS011;38816;51.142;-0.974;2024-03-29T07:16:20;62.67;;;54.92;;
51438;SDS011;38816;51.142;-0.974;2024-03-29T07:18:46;63.45;;;56.97;;
51438;SDS011;38816;51.142;-0.974;2024-03-29T07:21:11;67.05;;;61.20;;
51438;SDS011;38816;51.142;-0.974;2024-03-29T07:23:37;64.50;;;57.88;;
51438;SDS011;38816;51.142;-0.974;2024-03-29T07:26:03;63.05;;;52.33;;
51438;SDS011;38816;51.142;-0.974;2024-03-29T07:28:30;59.83;;;54.17;;
51438;SDS011;38816;51.142;-0.974;2024-03-29T07:30:56;65.07;;;58.85;;
51438;SDS011;38816;51.142;-0.974;2024-03-29T07:33:22;57.58;;;52.13;;
51438;SDS011;38816;51.142;-0.974;2024-03-29T07:35:51;62.33;;;57.13;;
51438;SDS011;38816;51.142;-0.974;2024-03-29T07:38:18;63.03;;;57.08;;
51438;SDS011;38816;51.142;-0.974;2024-03-29T07:40:45;59.25;;;53.75;;
51438;SDS011;38816;51.142;-0.974;2024-03-29T07:43:14;57.58;;;52.13;;
51438;SDS011;38816;51.142;-0.974;2024-03-29T07:45:42;57.70;;;52.33;;
51438;SDS011;38816;51.142;-0.974;2024-03-29T07:48:13;56.65;;;51.53;;
51438;SDS011;38816;51.142;-0.974;2024-03-29T07:50:40;59.75;;;54.75;;
51438;SDS011;38816;51.142;-0.974;2024-03-29T07:53:06;52.10;;;47.45;;
51438;SDS011;38816;51.142;-0.974;2024-03-29T07:55:31;49.00;;;44.47;;
51438;SDS011;38816;51.142;-0.974;2024-03-29T07:57:57;61.40;;;56.03;;
51438;SDS011;38816;51.142;-0.974;2024-03-29T08:00:23;56.60;;;51.33;;
51438;SDS011;38816;51.142;-0.974;2024-03-29T08:02:50;57.97;;;52.22;;
51438;SDS011;38816;51.142;-0.974;2024-03-29T08:05:20;58.47;;;53.35;;
51438;SDS011;38816;51.142;-0.974;2024-03-29T08:07:46;55.00;;;49.85;;
51438;SDS011;38816;51.142;-0.974;2024-03-29T08:10:11;54.90;;;49.47;;
51438;SDS011;38816;51.142;-0.974;2024-03-29T08:12:37;54.53;;;49.78;;
51438;SDS011;38816;51.142;-0.974;2024-03-29T08:15:03;53.05;;;48.55;;
51438;SDS011;38816;51.142;-0.974;2024-03-29T08:17:29;54.80;;;50.15;;
51438;SDS011;38816;51.142;-0.974;2024-03-29T08:19:54;54.78;;;49.80;;
51438;SDS011;38816;51.142;-0.974;2024-03-29T08:22:20;55.05;;;50.30;;
51438;SDS011;38816;51.142;-0.974;2024-03-29T08:24:46;53.17;;;48.47;;
51438;SDS011;38816;51.142;-0.974;2024-03-29T08:27:11;52.10;;;48.08;;
51438;SDS011;38816;51.142;-0.974;2024-03-29T08:29:37;55.13;;;50.92;;
51438;SDS011;38816;51.142;-0.974;2024-03-29T08:32:03;51.95;;;47.45;;
51438;SDS011;38816;51.142;-0.974;2024-03-29T08:34:28;51.22;;;47.15;;
51438;SDS011;38816;51.142;-0.974;2024-03-29T08:37:00;51.45;;;47.45;;
51438;SDS011;38816;51.142;-0.974;2024-03-29T08:39:31;54.97;;;51.05;;
51438;SDS011;38816;51.142;-0.974;2024-03-29T08:41:57;48.80;;;45.22;;
51438;SDS011;38816;51.142;-0.974;2024-03-29T08:44:23;56.55;;;52.35;;
51438;SDS011;38816;51.142;-0.974;2024-03-29T08:46:50;50.28;;;46.60;;
51438;SDS011;38816;51.142;-0.974;2024-03-29T08:49:16;52.42;;;48.67;;
51438;SDS011;38816;51.142;-0.974;2024-03-29T08:51:41;66.38;;;61.97;;
51438;SDS011;38816;51.142;-0.974;2024-03-29T08:54:06;68.13;;;63.33;;
51438;SDS011;38816;51.142;-0.974;2024-03-29T08:56:32;69.20;;;64.35;;
51438;SDS011;38816;51.142;-0.974;2024-03-29T08:58:59;71.20;;;66.38;;
51438;SDS011;38816;51.142;-0.974;2024-03-29T09:01:28;80.80;;;75.13;;
51438;SDS011;38816;51.142;-0.974;2024-03-29T09:03:53;82.47;;;76.47;;
51438;SDS011;38816;51.142;-0.974;2024-03-29T09:06:19;75.10;;;69.57;;
51438;SDS011;38816;51.142;-0.974;2024-03-29T09:08:44;76.80;;;71.05;;
51438;SDS011;38816;51.142;-0.974;2024-03-29T09:11:10;72.60;;;67.10;;
51438;SDS011;38816;51.142;-0.974;2024-03-29T09:13:36;79.13;;;72.95;;
51438;SDS011;38816;51.142;-0.974;2024-03-29T09:16:02;88.95;;;81.93;;
51438;SDS011;38816;51.142;-0.974;2024-03-29T09:18:28;89.18;;;82.30;;
51438;SDS011;38816;51.142;-0.974;2024-03-29T09:20:59;90.15;;;82.70;;
51438;SDS011;38816;51.142;-0.974;2024-03-29T09:23:25;90.53;;;82.40;;
51438;SDS011;38816;51.142;-0.974;2024-03-29T09:25:53;87.85;;;80.60;;
51438;SDS011;38816;51.142;-0.974;2024-03-29T09:28:19;82.15;;;74.78;;
51438;SDS011;38816;51.142;-0.974;2024-03-29T09:30:45;72.53;;;65.88;;
51438;SDS011;38816;51.142;-0.974;2024-03-29T09:33:12;74.70;;;67.15;;
51438;SDS011;38816;51.142;-0.974;2024-03-29T09:35:38;64.00;;;57.90;;
51438;SDS011;38816;51.142;-0.974;2024-03-29T09:38:03;64.07;;;57.17;;
51438;SDS011;38816;51.142;-0.974;2024-03-29T09:40:29;59.97;;;53.67;;
51438;SDS011;38816;51.142;-0.974;2024-03-29T09:42:56;66.60;;;59.67;;
51438;SDS011;38816;51.142;-0.974;2024-03-29T09:45:29;59.33;;;53.30;;
51438;SDS011;38816;51.142;-0.974;2024-03-29T09:47:59;62.42;;;56.53;;
51438;SDS011;38816;51.142;-0.974;2024-03-29T09:50:26;50.20;;;43.40;;
51438;SDS011;38816;51.142;-0.974;2024-03-29T09:52:52;51.13;;;45.25;;
51438;SDS011;38816;51.142;-0.974;2024-03-29T09:55:18;47.55;;;40.63;;
51438;SDS011;38816;51.142;-0.974;2024-03-29T09:57:45;44.85;;;40.22;;
51438;SDS011;38816;51.142;-0.974;2024-03-29T10:00:11;42.13;;;37.72;;
51438;SDS011;38816;51.142;-0.974;2024-03-29T10:02:37;46.13;;;41.30;;
51438;SDS011;38816;51.142;-0.974;2024-03-29T10:05:04;41.22;;;37.33;;
51438;SDS011;38816;51.142;-0.974;2024-03-29T10:07:33;40.60;;;36.38;;
51438;SDS011;38816;51.142;-0.974;2024-03-29T10:10:01;49.38;;;45.08;;
51438;SDS011;38816;51.142;-0.974;2024-03-29T10:12:27;48.55;;;43.85;;
51438;SDS011;38816;51.142;-0.974;2024-03-29T10:14:54;61.83;;;56.33;;
51438;SDS011;38816;51.142;-0.974;2024-03-29T10:17:30;64.18;;;58.53;;
51438;SDS011;38816;51.142;-0.974;2024-03-29T10:19:59;75.32;;;69.40;;
51438;SDS011;38816;51.142;-0.974;2024-03-29T10:22:28;83.15;;;75.47;;
51438;SDS011;38816;51.142;-0.974;2024-03-29T10:24:56;70.25;;;64.22;;
51438;SDS011;38816;51.142;-0.974;2024-03-29T10:27:25;84.90;;;77.88;;
51438;SDS011;38816;51.142;-0.974;2024-03-29T10:29:52;96.03;;;87.88;;
51438;SDS011;38816;51.142;-0.974;2024-03-29T10:32:18;98.60;;;90.45;;
51438;SDS011;38816;51.142;-0.974;2024-03-29T10:34:43;83.07;;;76.30;;
51438;SDS011;38816;51.142;-0.974;2024-03-29T10:37:09;91.97;;;84.53;;
51438;SDS011;38816;51.142;-0.974;2024-03-29T10:39:35;87.63;;;80.50;;
51438;SDS011;38816;51.142;-0.974;2024-03-29T10:42:01;91.88;;;84.55;;
51438;SDS011;38816;51.142;-0.974;2024-03-29T10:44:30;97.25;;;89.70;;
51438;SDS011;38816;51.142;-0.974;2024-03-29T10:46:57;95.60;;;87.65;;
51438;SDS011;38816;51.142;-0.974;2024-03-29T10:49:24;120.20;;;110.30;;
51438;SDS011;38816;51.142;-0.974;2024-03-29T10:51:50;129.38;;;119.00;;
51438;SDS011;38816;51.142;-0.974;2024-03-29T10:54:16;135.20;;;125.43;;
51438;SDS011;38816;51.142;-0.974;2024-03-29T10:56:42;133.18;;;123.00;;
51438;SDS011;38816;51.142;-0.974;2024-03-29T10:59:12;127.28;;;117.28;;
51438;SDS011;38816;51.142;-0.974;2024-03-29T11:01:43;128.55;;;118.97;;
51438;SDS011;38816;51.142;-0.974;2024-03-29T11:04:13;120.07;;;111.07;;
51438;SDS011;38816;51.142;-0.974;2024-03-29T11:06:47;111.72;;;103.10;;
51438;SDS011;38816;51.142;-0.974;2024-03-29T11:09:17;118.97;;;109.85;;
51438;SDS011;38816;51.142;-0.974;2024-03-29T11:11:46;123.65;;;114.20;;
51438;SDS011;38816;51.142;-0.974;2024-03-29T11:14:23;125.68;;;116.47;;
51438;SDS011;38816;51.142;-0.974;2024-03-29T11:17:01;121.70;;;112.65;;
51438;SDS011;38816;51.142;-0.974;2024-03-29T11:19:28;120.85;;;111.57;;
51438;SDS011;38816;51.142;-0.974;2024-03-29T11:21:54;129.60;;;119.82;;
51438;SDS011;38816;51.142;-0.974;2024-03-29T11:24:22;115.25;;;106.38;;
51438;SDS011;38816;51.142;-0.974;2024-03-29T11:26:47;119.35;;;110.03;;
51438;SDS011;38816;51.142;-0.974;2024-03-29T11:29:19;108.07;;;99.22;;
51438;SDS011;38816;51.142;-0.974;2024-03-29T11:31:58;125.95;;;116.80;;
51438;SDS011;38816;51.142;-0.974;2024-03-29T11:34:24;133.70;;;123.55;;
51438;SDS011;38816;51.142;-0.974;2024-03-29T11:36:50;130.10;;;120.75;;
51438;SDS011;38816;51.142;-0.974;2024-03-29T11:39:22;137.90;;;127.72;;
51438;SDS011;38816;51.142;-0.974;2024-03-29T11:41:48;126.35;;;117.05;;
51438;SDS011;38816;51.142;-0.974;2024-03-29T11:44:14;125.63;;;116.25;;
51438;SDS011;38816;51.142;-0.974;2024-03-29T11:46:40;123.78;;;114.20;;
51438;SDS011;38816;51.142;-0.974;2024-03-29T11:49:07;130.73;;;120.90;;
51438;SDS011;38816;51.142;-0.974;2024-03-29T11:51:32;126.28;;;116.20;;
51438;SDS011;38816;51.142;-0.974;2024-03-29T11:53:59;128.43;;;119.22;;
51438;SDS011;38816;51.142;-0.974;2024-03-29T11:56:25;127.63;;;118.55;;
51438;SDS011;38816;51.142;-0.974;2024-03-29T11:58:51;126.43;;;116.82;;
51438;SDS011;38816;51.142;-0.974;2024-03-29T12:01:18;124.60;;;115.38;;
51438;SDS011;38816;51.142;-0.974;2024-03-29T12:03:43;119.13;;;110.20;;
51438;SDS011;38816;51.142;-0.974;2024-03-29T12:06:09;117.63;;;108.95;;
51438;SDS011;38816;51.142;-0.974;2024-03-29T12:08:35;113.03;;;104.57;;
51438;SDS011;38816;51.142;-0.974;2024-03-29T12:11:03;111.65;;;103.68;;
51438;SDS011;38816;51.142;-0.974;2024-03-29T12:13:29;124.05;;;115.15;;
51438;SDS011;38816;51.142;-0.974;2024-03-29T12:15:56;112.50;;;104.45;;
51438;SDS011;38816;51.142;-0.974;2024-03-29T12:18:22;115.88;;;107.63;;
51438;SDS011;38816;51.142;-0.974;2024-03-29T12:20:49;131.98;;;122.05;;
51438;SDS011;38816;51.142;-0.974;2024-03-29T12:23:19;122.68;;;113.47;;
51438;SDS011;38816;51.142;-0.974;2024-03-29T12:25:46;121.28;;;112.28;;
51438;SDS011;38816;51.142;-0.974;2024-03-29T12:28:13;127.80;;;117.95;;
51438;SDS011;38816;51.142;-0.974;2024-03-29T12:30:41;126.38;;;117.57;;
51438;SDS011;38816;51.142;-0.974;2024-03-29T12:33:11;118.75;;;110.28;;
51438;SDS011;38816;51.142;-0.974;2024-03-29T12:35:43;108.88;;;100.95;;
51438;SDS011;38816;51.142;-0.974;2024-03-29T12:38:11;105.15;;;97.13;;
51438;SDS011;38816;51.142;-0.974;2024-03-29T12:40:44;121.18;;;112.32;;
51438;SDS011;38816;51.142;-0.974;2024-03-29T12:43:15;127.53;;;118.75;;
51438;SDS011;38816;51.142;-0.974;2024-03-29T12:45:44;134.77;;;125.05;;
51438;SDS011;38816;51.142;-0.974;2024-03-29T12:48:12;118.60;;;110.00;;
51438;SDS011;38816;51.142;-0.974;2024-03-29T12:50:41;118.78;;;110.18;;
51438;SDS011;38816;51.142;-0.974;2024-03-29T12:53:08;111.50;;;103.03;;
51438;SDS011;38816;51.142;-0.974;2024-03-29T12:55:36;111.32;;;102.97;;
51438;SDS011;38816;51.142;-0.974;2024-03-29T12:58:07;106.72;;;98.75;;
51438;SDS011;38816;51.142;-0.974;2024-03-29T13:00:36;111.53;;;103.43;;
51438;SDS011;38816;51.142;-0.974;2024-03-29T13:03:02;136.93;;;127.13;;
51438;SDS011;38816;51.142;-0.974;2024-03-29T13:05:28;152.75;;;140.07;;
51438;SDS011;38816;51.142;-0.974;2024-03-29T13:08:02;144.27;;;133.68;;
51438;SDS011;38816;51.142;-0.974;2024-03-29T13:10:34;141.07;;;130.73;;
51438;SDS011;38816;51.142;-0.974;2024-03-29T13:12:59;134.68;;;124.70;;
51438;SDS011;38816;51.142;-0.974;2024-03-29T13:15:25;121.43;;;111.75;;
51438;SDS011;38816;51.142;-0.974;2024-03-29T13:17:55;132.30;;;121.95;;
51438;SDS011;38816;51.142;-0.974;2024-03-29T13:20:22;150.80;;;139.65;;
51438;SDS011;38816;51.142;-0.974;2024-03-29T13:22:49;147.27;;;136.85;;
51438;SDS011;38816;51.142;-0.974;2024-03-29T13:25:18;165.95;;;153.98;;
51438;SDS011;38816;51.142;-0.974;2024-03-29T13:27:52;163.73;;;152.20;;
51438;SDS011;38816;51.142;-0.974;2024-03-29T13:30:20;143.60;;;133.68;;
51438;SDS011;38816;51.142;-0.974;2024-03-29T13:32:49;134.27;;;123.93;;
51438;SDS011;38816;51.142;-0.974;2024-03-29T13:35:15;135.63;;;125.68;;
51438;SDS011;38816;51.142;-0.974;2024-03-29T13:37:41;133.98;;;124.28;;
51438;SDS011;38816;51.142;-0.974;2024-03-29T13:40:08;141.88;;;131.50;;
51438;SDS011;38816;51.142;-0.974;2024-03-29T13:42:35;141.32;;;130.75;;
51438;SDS011;38816;51.142;-0.974;2024-03-29T13:45:01;135.65;;;125.05;;
51438;SDS011;38816;51.142;-0.974;2024-03-29T13:47:27;131.98;;;121.40;;
51438;SDS011;38816;51.142;-0.974;2024-03-29T13:49:52;163.65;;;151.70;;
51438;SDS011;38816;51.142;-0.974;2024-03-29T13:52:19;154.63;;;143.80;;
51438;SDS011;38816;51.142;-0.974;2024-03-29T13:54:45;121.80;;;112.65;;